Time;durP1;ratioP1;P1;durP2;ratioP2;P2;SDS_P1;SDS_P2;PMS_P1;PMS_P2;Temp;Humidity;BMP_temperature;BMP_pressure;BME280_temperature;BME280_humidity;BME280_pressure;Samples;Min_cycle;Max_cycle;Signal;HPM_P1;HPM_P2
2021/04/19 00:02:14;;;;;;;20.35;18.02;;;;;;;7.89;72.39;100666.56;5062318;28;20395;-75
2021/04/19 00:05:20;;;;;;;20.52;18.33;;;;;;;7.85;72.83;100667.78;5062017;28;20055;-77
2021/04/19 00:08:24;;;;;;;20.35;17.23;;;;;;;7.90;72.86;100654.06;5068582;28;20052;-77
2021/04/19 00:11:29;;;;;;;19.55;17.27;;;;;;;7.97;72.61;100658.88;5064207;28;20048;-75
2021/04/19 00:14:33;;;;;;;20.75;18.55;;;;;;;7.94;72.41;100656.41;5062400;28;20052;-76
2021/04/19 00:17:38;;;;;;;21.50;18.33;;;;;;;7.92;72.58;100653.00;5063594;28;20052;-76
2021/04/19 00:20:43;;;;;;;19.65;17.23;;;;;;;7.93;72.44;100651.16;5070293;28;20039;-83
2021/04/19 00:23:47;;;;;;;19.48;17.48;;;;;;;7.95;72.55;100644.72;5063904;28;20059;-78
2021/04/19 00:26:51;;;;;;;21.23;18.08;;;;;;;7.91;72.55;100650.41;5051572;28;20056;-75
2021/04/19 00:29:56;;;;;;;19.67;17.10;;;;;;;7.84;72.76;100639.31;5070571;28;20494;-84
2021/04/19 00:33:00;;;;;;;19.73;17.58;;;;;;;7.91;72.83;100645.94;5062536;28;20048;-82
2021/04/19 00:36:05;;;;;;;19.98;17.83;;;;;;;7.98;72.69;100639.16;5067550;28;20403;-75
2021/04/19 00:39:09;;;;;;;20.77;17.40;;;;;;;8.05;72.42;100635.09;5074675;28;20059;-76
2021/04/19 00:42:16;;;;;;;20.98;16.40;;;;;;;8.10;72.76;100629.44;5068746;28;20048;-76
2021/04/19 00:45:21;;;;;;;20.27;17.67;;;;;;;8.09;72.40;100633.91;5065926;28;20056;-75
2021/04/19 00:48:25;;;;;;;21.00;17.83;;;;;;;8.13;72.12;100634.53;5072646;28;20043;-78
2021/04/19 00:51:29;;;;;;;19.90;17.75;;;;;;;8.08;72.15;100631.34;5070515;28;20051;-76
2021/04/19 00:54:36;;;;;;;20.70;17.20;;;;;;;8.04;71.77;100628.03;5072869;28;20036;-78
2021/04/19 00:57:43;;;;;;;19.17;17.13;;;;;;;7.89;72.04;100631.81;5066315;28;20048;-77
2021/04/19 01:00:48;;;;;;;20.52;17.20;;;;;;;7.73;72.57;100628.53;5066579;28;20089;-77
2021/04/19 01:03:53;;;;;;;20.33;17.55;;;;;;;7.67;72.77;100631.66;5057852;28;20044;-77
2021/04/19 01:07:00;;;;;;;18.65;16.48;;;;;;;7.72;72.73;100626.84;5065949;28;20041;-77
2021/04/19 01:10:05;;;;;;;20.88;17.85;;;;;;;7.66;72.74;100627.28;5069355;28;20100;-77
2021/04/19 01:13:10;;;;;;;21.10;18.27;;;;;;;7.65;72.83;100623.72;5064571;28;20522;-76
2021/04/19 01:16:15;;;;;;;19.60;17.20;;;;;;;7.73;72.80;100631.22;5065221;28;20052;-78
2021/04/19 01:19:20;;;;;;;18.40;16.52;;;;;;;7.78;72.75;100629.91;5065483;28;20059;-75
2021/04/19 01:22:26;;;;;;;19.60;17.15;;;;;;;7.79;72.71;100625.44;5054552;28;20056;-78
2021/04/19 01:25:33;;;;;;;21.40;18.33;;;;;;;7.73;72.81;100631.22;5066811;28;20056;-76
2021/04/19 01:28:37;;;;;;;21.42;17.98;;;;;;;7.74;73.12;100635.59;5065358;28;20048;-76
2021/04/19 01:31:41;;;;;;;19.40;17.38;;;;;;;7.66;73.48;100624.59;5065873;28;20434;-76
2021/04/19 01:34:49;;;;;;;22.10;18.40;;;;;;;7.67;73.54;100632.53;5064444;28;20048;-76
2021/04/19 01:37:54;;;;;;;20.77;18.42;;;;;;;7.59;73.76;100637.53;5064784;28;20052;-76
2021/04/19 01:41:00;;;;;;;22.50;20.02;;;;;;;7.45;74.61;100635.00;5064895;28;20056;-76
2021/04/19 01:44:05;;;;;;;22.25;19.85;;;;;;;7.33;75.10;100624.34;5066961;28;20486;-76
2021/04/19 01:47:10;;;;;;;24.30;20.10;;;;;;;7.28;75.69;100629.13;5066278;28;20052;-76
2021/04/19 01:50:23;;;;;;;24.65;20.08;;;;;;;7.22;75.98;100628.59;5064105;28;20498;-78
2021/04/19 01:53:30;;;;;;;23.05;20.27;;;;;;;7.13;76.36;100621.22;5065234;28;20051;-76
2021/04/19 01:56:36;;;;;;;23.58;20.30;;;;;;;7.14;76.35;100624.75;5064563;28;20040;-76
2021/04/19 01:59:42;;;;;;;22.85;20.40;;;;;;;7.12;76.44;100630.19;5064651;28;20056;-84
2021/04/19 02:03:03;;;;;;;23.52;19.45;;;;;;;7.17;76.47;100630.72;5055015;28;20048;-76
2021/04/19 02:06:19;;;;;;;25.48;20.85;;;;;;;7.19;76.34;100625.28;5065635;28;20698;-83
2021/04/19 02:09:42;;;;;;;24.67;20.58;;;;;;;7.15;76.06;100613.13;5065559;28;20068;-76
2021/04/19 02:12:58;;;;;;;23.75;20.15;;;;;;;7.16;75.76;100621.00;5066066;28;20043;-79
2021/04/19 02:16:13;;;;;;;24.67;21.13;;;;;;;7.10;76.01;100617.91;5065102;28;20044;-77
2021/04/19 02:19:39;;;;;;;25.05;20.38;;;;;;;6.99;76.08;100621.31;5065947;28;20055;-82
2021/04/19 02:22:58;;;;;;;23.98;20.52;;;;;;;6.97;76.16;100611.72;5065612;28;20048;-75
2021/04/19 02:26:25;;;;;;;29.05;21.75;;;;;;;6.91;76.24;100623.66;5064402;28;20044;-75
2021/04/19 02:29:52;;;;;;;25.35;20.80;;;;;;;6.97;76.06;100615.25;5065154;28;20517;-76
2021/04/19 02:33:03;;;;;;;24.58;20.83;;;;;;;6.90;76.55;100616.63;5065860;28;20510;-75
2021/04/19 02:36:11;;;;;;;25.00;21.48;;;;;;;6.92;76.66;100612.03;5065325;28;20044;-76
2021/04/19 02:39:20;;;;;;;25.65;21.50;;;;;;;6.95;76.55;100606.50;5051868;28;20434;-76
2021/04/19 02:42:28;;;;;;;27.10;21.90;;;;;;;7.06;76.53;100619.09;5064561;28;20040;-75
2021/04/19 02:45:33;;;;;;;23.10;20.60;;;;;;;7.19;76.17;100620.81;5067332;28;20035;-76
2021/04/19 02:48:47;;;;;;;23.98;21.02;;;;;;;7.16;76.06;100620.16;5064232;28;20403;-75
2021/04/19 02:52:03;;;;;;;22.92;20.38;;;;;;;7.19;76.06;100623.47;5063453;28;20040;-75
2021/04/19 02:55:08;;;;;;;25.35;20.30;;;;;;;7.20;76.05;100622.53;5065083;28;20391;-75
2021/04/19 02:58:16;;;;;;;24.30;20.10;;;;;;;7.26;76.03;100620.38;5064161;28;20467;-80
2021/04/19 03:01:27;;;;;;;22.98;20.23;;;;;;;7.19;76.21;100615.47;5061487;28;20060;-75
2021/04/19 03:04:37;;;;;;;23.60;21.02;;;;;;;7.21;75.86;100616.19;5067506;28;20039;-75
2021/04/19 03:08:02;;;;;;;23.55;20.15;;;;;;;7.21;75.76;100620.69;5063757;28;20048;-76
2021/04/19 03:11:30;;;;;;;24.98;20.02;;;;;;;7.18;75.96;100618.25;5063989;28;20044;-79
2021/04/19 03:14:57;;;;;;;26.00;20.48;;;;;;;7.21;75.72;100610.88;5062930;28;20597;-75
2021/04/19 03:18:08;;;;;;;24.23;20.15;;;;;;;7.19;75.92;100612.78;5063214;28;20048;-76
2021/04/19 03:21:22;;;;;;;22.63;19.35;;;;;;;7.28;75.68;100607.78;5062644;28;20052;-75
2021/04/19 03:24:46;;;;;;;22.20;19.35;;;;;;;7.28;75.74;100607.78;5063982;28;20059;-75
2021/04/19 03:28:05;;;;;;;23.00;20.50;;;;;;;7.28;75.58;100602.44;5062926;28;20048;-75
2021/04/19 03:31:24;;;;;;;23.48;20.42;;;;;;;7.23;75.83;100606.25;5064406;28;20048;-76
2021/04/19 03:34:36;;;;;;;25.02;21.20;;;;;;;7.26;75.82;100604.38;5063377;28;20035;-75
2021/04/19 03:37:44;;;;;;;27.08;20.65;;;;;;;7.21;76.06;100610.00;5050936;28;20051;-75
2021/04/19 03:40:51;;;;;;;22.67;19.98;;;;;;;7.20;76.22;100608.31;5063644;28;20396;-75
2021/04/19 03:44:02;;;;;;;23.23;20.73;;;;;;;7.12;76.53;100616.84;5063170;28;20044;-75
2021/04/19 03:47:10;;;;;;;28.02;20.45;;;;;;;7.11;76.66;100608.97;5063951;28;20067;-75
2021/04/19 03:50:38;;;;;;;24.92;20.35;;;;;;;7.11;76.69;100601.78;5062205;28;20043;-76
2021/04/19 03:53:44;;;;;;;25.02;22.30;;;;;;;7.05;76.83;100607.56;5062384;28;20052;-75
2021/04/19 03:56:51;;;;;;;23.33;20.25;;;;;;;7.06;76.98;100603.09;5063436;28;20043;-75
2021/04/19 04:00:06;;;;;;;25.90;21.08;;;;;;;7.02;76.86;100609.56;5062756;28;20044;-76
2021/04/19 04:03:24;;;;;;;25.20;21.17;;;;;;;7.00;76.85;100612.38;5063442;28;20056;-76
2021/04/19 04:07:07;;;;;;;25.23;21.90;;;;;;;6.92;77.10;100606.69;5042423;28;20646;-75
2021/04/19 04:10:20;;;;;;;28.40;21.95;;;;;;;6.95;77.13;100609.16;5068008;28;20048;-75
2021/04/19 04:13:26;;;;;;;26.13;21.73;;;;;;;7.02;77.17;100617.59;5064299;28;20043;-77
2021/04/19 04:16:31;;;;;;;25.80;21.10;;;;;;;7.13;77.16;100620.38;5061896;28;20052;-76
2021/04/19 04:19:42;;;;;;;24.55;20.40;;;;;;;7.25;76.68;100614.19;5068457;28;20044;-76
2021/04/19 04:22:48;;;;;;;24.55;20.52;;;;;;;7.35;76.28;100617.06;5085061;28;20111;-77
2021/04/19 04:25:55;;;;;;;25.25;21.25;;;;;;;7.44;76.33;100622.59;5062989;28;20043;-76
2021/04/19 04:29:04;;;;;;;27.38;20.85;;;;;;;7.48;75.95;100620.59;5065274;28;20048;-76
2021/04/19 04:32:15;;;;;;;23.85;19.77;;;;;;;7.54;75.69;100620.13;5050233;28;20040;-82
2021/04/19 04:35:21;;;;;;;24.77;20.30;;;;;;;7.61;75.72;100618.72;5061674;28;20060;-76
2021/04/19 04:38:37;;;;;;;23.08;20.58;;;;;;;7.60;76.05;100625.91;5066061;28;20115;-76
2021/04/19 04:41:46;;;;;;;21.75;19.23;;;;;;;7.64;76.03;100618.50;5063703;28;20048;-75
2021/04/19 04:44:51;;;;;;;24.10;20.80;;;;;;;7.64;76.31;100626.53;5063686;28;20059;-76
2021/04/19 04:48:02;;;;;;;23.38;20.23;;;;;;;7.64;76.43;100629.19;5066559;28;20044;-75
2021/04/19 04:51:13;;;;;;;25.73;20.65;;;;;;;7.65;76.26;100626.41;5067764;28;20490;-77
2021/04/19 04:54:20;;;;;;;22.77;20.38;;;;;;;7.73;76.11;100632.06;5063745;28;20056;-82
2021/04/19 04:57:28;;;;;;;25.17;20.92;;;;;;;7.75;75.47;100622.13;5063699;28;20506;-76
2021/04/19 05:00:34;;;;;;;25.77;20.17;;;;;;;7.77;74.78;100611.34;5067003;28;20506;-76
2021/04/19 05:03:40;;;;;;;22.58;19.58;;;;;;;7.84;74.36;100617.94;5061112;28;20040;-76
2021/04/19 05:06:46;;;;;;;22.38;18.90;;;;;;;7.85;74.05;100622.34;5063106;28;20051;-76
2021/04/19 05:09:51;;;;;;;24.65;20.60;;;;;;;7.85;73.94;100622.34;5062985;28;20598;-79
2021/04/19 05:12:55;;;;;;;114.85;90.45;;;;;;;7.91;73.93;100629.03;5067996;28;20064;-76
2021/04/19 05:16:01;;;;;;;113.00;82.68;;;;;;;7.92;74.07;100625.41;5061971;28;20037;-76
2021/04/19 05:19:07;;;;;;;40.88;31.02;;;;;;;7.93;73.83;100627.09;5061887;28;20037;-76
2021/04/19 05:22:15;;;;;;;25.05;21.45;;;;;;;8.01;73.36;100630.94;5073136;28;20048;-77
2021/04/19 05:25:19;;;;;;;23.50;19.95;;;;;;;8.02;73.46;100631.78;5068998;28;20047;-75
2021/04/19 05:28:24;;;;;;;25.10;21.08;;;;;;;8.04;73.25;100625.38;5065966;28;20502;-76
2021/04/19 05:31:30;;;;;;;28.20;20.45;;;;;;;8.06;73.40;100634.13;5068038;28;20063;-77
2021/04/19 05:34:36;;;;;;;27.13;20.20;;;;;;;8.07;73.53;100635.00;5069790;28;20483;-76
2021/04/19 05:37:41;;;;;;;28.77;22.48;;;;;;;8.13;73.60;100632.72;5064491;28;20051;-83
2021/04/19 05:40:46;;;;;;;25.75;20.98;;;;;;;8.23;73.17;100636.41;5066029;28;20048;-76
2021/04/19 05:43:51;;;;;;;27.98;21.42;;;;;;;8.35;73.02;100637.34;5072178;28;20047;-79
2021/04/19 05:46:55;;;;;;;29.85;21.35;;;;;;;8.46;73.07;100635.63;5056876;28;20063;-78
2021/04/19 05:50:00;;;;;;;25.45;20.23;;;;;;;8.58;72.41;100641.00;5064970;28;20052;-76
2021/04/19 05:53:04;;;;;;;26.40;20.85;;;;;;;8.69;72.00;100641.06;5067361;28;20399;-76
2021/04/19 05:56:17;;;;;;;31.02;19.45;;;;;;;8.80;71.68;100639.28;5055826;28;20047;-76
2021/04/19 05:59:38;;;;;;;29.85;19.25;;;;;;;9.00;71.37;100648.47;5064024;28;20060;-75
2021/04/19 06:03:01;;;;;;;24.20;19.40;;;;;;;9.32;70.47;100646.81;5056208;28;20052;-75
2021/04/19 06:06:17;;;;;;;24.90;19.75;;;;;;;9.68;69.33;100646.59;5062776;28;20051;-74
2021/04/19 06:09:40;;;;;;;23.13;18.25;;;;;;;10.22;67.74;100648.56;5066133;28;20048;-80
2021/04/19 06:13:15;;;;;;;22.83;18.67;;;;;;;10.82;65.06;100647.97;5055338;28;20057;-75
2021/04/19 06:16:20;;;;;;;24.08;18.15;;;;;;;11.09;63.36;100641.09;5054665;28;20037;-83
2021/04/19 06:19:25;;;;;;;24.92;18.27;;;;;;;11.16;62.80;100644.09;5073760;28;20052;-78
2021/04/19 06:22:36;;;;;;;24.60;17.90;;;;;;;11.43;62.49;100648.97;5058021;28;20033;-76
2021/04/19 06:25:40;;;;;;;24.25;18.20;;;;;;;12.09;59.68;100644.91;5074281;28;20044;-74
2021/04/19 06:28:48;;;;;;;23.83;16.83;;;;;;;12.21;58.90;100650.03;5071540;28;20048;-89
2021/04/19 06:31:53;;;;;;;23.20;18.70;;;;;;;12.30;57.57;100643.81;5071590;28;20483;-79
2021/04/19 06:34:59;;;;;;;21.63;18.08;;;;;;;12.41;57.82;100648.22;5057282;28;20053;-77
2021/04/19 06:38:04;;;;;;;27.38;18.88;;;;;;;12.46;57.70;100643.28;5054819;28;20506;-77
2021/04/19 06:41:08;;;;;;;25.95;19.13;;;;;;;12.58;57.55;100652.06;5060675;28;20045;-83
2021/04/19 06:44:14;;;;;;;23.15;19.30;;;;;;;12.78;57.30;100649.25;5065151;28;20502;-81
2021/04/19 06:47:20;;;;;;;25.38;19.08;;;;;;;13.11;56.88;100649.84;5068865;28;20048;-77
2021/04/19 06:50:24;;;;;;;23.83;19.33;;;;;;;13.62;54.96;100650.31;5080331;28;20044;-77
2021/04/19 06:53:29;;;;;;;26.17;19.52;;;;;;;14.43;52.70;100640.56;5061070;28;20048;-78
2021/04/19 06:56:35;;;;;;;23.92;19.38;;;;;;;14.83;50.67;100652.63;5070319;28;20040;-75
2021/04/19 06:59:42;;;;;;;25.02;19.85;;;;;;;15.45;48.61;100642.69;5071104;28;20041;-75
2021/04/19 07:02:55;;;;;;;21.58;18.17;;;;;;;18.13;43.12;100641.94;5070328;28;20037;-75
2021/04/19 07:06:02;;;;;;;23.05;16.73;;;;;;;20.45;37.42;100632.94;5071535;28;20041;-75
2021/04/19 07:09:27;;;;;;;22.00;17.17;;;;;;;21.62;34.26;100632.44;5070525;28;20045;-74
2021/04/19 07:12:35;;;;;;;20.70;17.02;;;;;;;25.14;29.53;100625.41;5068267;28;20415;-76
2021/04/19 07:15:44;;;;;;;20.20;14.43;;;;;;;28.88;24.66;100626.25;5053470;28;20045;-76
2021/04/19 07:18:49;;;;;;;16.88;15.07;;;;;;;29.70;22.99;100623.81;5071197;28;20040;-76
2021/04/19 07:21:54;;;;;;;16.75;13.68;;;;;;;31.46;21.01;100614.09;5073204;28;20040;-75
2021/04/19 07:24:59;;;;;;;14.63;13.23;;;;;;;32.31;19.98;100618.56;5073768;28;20037;-74
2021/04/19 07:28:05;;;;;;;13.98;12.68;;;;;;;33.27;19.12;100614.13;5073543;28;20032;-76
2021/04/19 07:31:11;;;;;;;14.43;12.65;;;;;;;33.23;19.21;100613.03;5073923;28;20052;-75
2021/04/19 07:34:20;;;;;;;15.00;13.50;;;;;;;32.75;18.85;100611.53;5073443;28;20040;-75
2021/04/19 07:37:25;;;;;;;16.25;13.23;;;;;;;32.11;19.25;100613.75;5073018;28;20048;-76
2021/04/19 07:40:35;;;;;;;14.75;12.95;;;;;;;32.44;19.11;100612.50;5053576;28;20041;-76
2021/04/19 07:43:41;;;;;;;14.07;12.77;;;;;;;33.25;18.59;100605.22;5052205;28;20052;-75
2021/04/19 07:46:45;;;;;;;13.90;12.63;;;;;;;33.92;17.92;100600.16;5054521;28;20390;-75
2021/04/19 07:50:02;;;;;;;14.63;13.15;;;;;;;34.62;16.81;100603.84;5056244;28;20479;-76
2021/04/19 07:53:09;;;;;;;13.60;12.23;;;;;;;36.45;16.16;100613.16;5053561;28;20052;-76
2021/04/19 07:56:18;;;;;;;13.85;12.45;;;;;;;35.41;15.78;100595.22;5061607;28;20048;-75
2021/04/19 07:59:29;;;;;;;13.95;12.10;;;;;;;35.46;15.67;100592.41;5073576;28;20056;-78
2021/04/19 08:02:34;;;;;;;11.75;10.75;;;;;;;36.33;15.28;100593.19;5073809;28;20052;-77
2021/04/19 08:05:49;;;;;;;11.85;10.32;;;;;;;38.53;14.27;100598.19;5073420;28;20044;-77
2021/04/19 08:09:04;;;;;;;11.40;10.45;;;;;;;39.00;13.58;100597.69;5073606;28;20491;-78
2021/04/19 08:12:10;;;;;;;14.40;13.07;;;;;;;40.00;13.00;100598.25;5072507;28;20041;-89
2021/04/19 08:15:20;;;;;;;23.10;20.98;;;;;;;37.72;14.14;100590.53;5073284;28;20048;-82
2021/04/19 08:18:26;;;;;;;12.30;11.10;;;;;;;39.44;14.18;100594.09;5073515;28;20044;-81
2021/04/19 08:21:33;;;;;;;12.05;10.95;;;;;;;38.23;14.32;100596.84;5073441;28;20045;-83
2021/04/19 08:24:38;;;;;;;12.75;11.45;;;;;;;36.43;15.86;100605.09;5072550;28;20040;-82
2021/04/19 08:27:44;;;;;;;13.02;11.70;;;;;;;34.17;17.13;100601.25;5073607;28;20041;-81
2021/04/19 08:30:52;;;;;;;14.00;11.68;;;;;;;33.57;17.57;100605.81;5055743;28;20049;-85
2021/04/19 08:33:56;;;;;;;11.98;10.85;;;;;;;33.08;17.78;100607.44;5063507;28;20048;-85
2021/04/19 08:37:01;;;;;;;10.50;9.48;;;;;;;33.60;17.69;100596.06;5061181;28;20045;-77
2021/04/19 08:40:06;;;;;;;10.02;8.90;;;;;;;33.71;17.42;100594.91;5055625;28;20052;-84
2021/04/19 08:43:15;;;;;;;16.00;14.38;;;;;;;33.54;17.25;100600.81;5058233;28;20052;-84
2021/04/19 08:46:20;;;;;;;20.00;18.15;;;;;;;31.91;18.62;100599.69;5051788;28;20037;-84
2021/04/19 08:49:24;;;;;;;11.80;10.68;;;;;;;29.55;20.30;100607.78;5052962;28;20041;-81
2021/04/19 08:52:29;;;;;;;11.40;10.30;;;;;;;26.90;23.11;100610.81;5053014;28;20045;-84
2021/04/19 08:55:33;;;;;;;11.57;10.48;;;;;;;24.27;27.64;100614.25;5054696;28;20053;-85
2021/04/19 08:58:38;;;;;;;12.73;11.07;;;;;;;22.29;29.81;100611.63;5057370;28;20041;-86
2021/04/19 09:01:43;;;;;;;14.30;10.13;;;;;;;21.28;30.13;100614.94;5055985;28;20041;-82
2021/04/19 09:05:10;;;;;;;11.70;9.50;;;;;;;20.88;31.76;100618.34;5056953;28;20037;-84
2021/04/19 09:08:15;;;;;;;11.95;10.85;;;;;;;20.09;32.57;100616.53;5055762;28;20052;-79
2021/04/19 09:11:28;;;;;;;11.80;10.68;;;;;;;19.80;33.15;100622.81;5056921;28;20049;-78
2021/04/19 09:14:37;;;;;;;11.60;10.40;;;;;;;19.02;34.90;100625.09;5056932;28;20033;-79
2021/04/19 09:17:42;;;;;;;12.57;10.13;;;;;;;19.12;35.38;100622.13;5056614;28;20468;-83
2021/04/19 09:20:53;;;;;;;12.75;11.55;;;;;;;18.94;35.09;100617.00;5056760;28;20049;-85
2021/04/19 09:23:58;;;;;;;14.15;12.65;;;;;;;18.10;36.52;100619.69;5055708;28;20049;-79
2021/04/19 09:27:03;;;;;;;13.35;11.88;;;;;;;18.38;35.99;100611.91;5055505;28;20041;-79
2021/04/19 09:30:23;;;;;;;14.10;12.23;;;;;;;18.15;36.74;100614.56;5055082;28;20487;-82
2021/04/19 09:33:27;;;;;;;12.52;11.30;;;;;;;18.33;36.39;100614.31;5056140;28;20041;-86
2021/04/19 09:36:51;;;;;;;12.75;11.50;;;;;;;18.09;36.51;100616.16;5055247;28;20040;-77
2021/04/19 09:40:00;;;;;;;14.48;13.00;;;;;;;18.17;36.05;100607.94;5058535;28;20041;-83
2021/04/19 09:43:05;;;;;;;13.20;11.57;;;;;;;18.56;36.86;100610.66;5058193;28;20041;-79
2021/04/19 09:46:16;;;;;;;15.77;11.95;;;;;;;18.31;36.13;100611.78;5055655;28;20048;-77
2021/04/19 09:49:23;;;;;;;14.13;12.00;;;;;;;17.87;37.33;100606.06;5056008;28;20049;-78
2021/04/19 09:52:27;;;;;;;13.73;12.32;;;;;;;17.89;38.03;100606.72;5055803;28;20399;-77
2021/04/19 09:55:32;;;;;;;14.32;12.82;;;;;;;17.83;37.49;100603.84;5059543;28;20037;-82
2021/04/19 09:58:41;;;;;;;13.65;12.25;;;;;;;17.28;38.48;100596.47;5055182;28;20045;-77
2021/04/19 10:01:59;;;;;;;14.23;12.70;;;;;;;17.13;39.07;100602.78;5058628;28;20037;-77
2021/04/19 10:05:05;;;;;;;17.52;13.93;;;;;;;17.14;39.51;100597.16;5056760;28;20049;-77
2021/04/19 10:08:12;;;;;;;13.55;12.13;;;;;;;17.32;39.64;100596.97;5060704;28;20380;-76
2021/04/19 10:11:26;;;;;;;13.60;12.15;;;;;;;17.54;39.21;100597.16;5057837;28;20487;-76
2021/04/19 10:14:35;;;;;;;16.08;13.68;;;;;;;17.32;40.04;100591.56;5056615;28;20396;-83
2021/04/19 10:17:40;;;;;;;13.38;12.07;;;;;;;17.41;38.85;100599.50;5054910;28;20045;-80
2021/04/19 10:20:44;;;;;;;14.60;13.20;;;;;;;17.36;39.08;100601.88;5054406;28;20040;-83
2021/04/19 10:23:49;;;;;;;15.90;13.80;;;;;;;16.94;40.96;100593.09;5055199;28;20041;-82
2021/04/19 10:26:53;;;;;;;17.10;15.35;;;;;;;16.79;41.75;100594.78;5054329;28;20407;-82
2021/04/19 10:30:13;;;;;;;17.10;15.35;;;;;;;16.48;42.16;100593.72;5054149;28;20045;-84
2021/04/19 10:33:26;;;;;;;16.83;15.02;;;;;;;16.42;41.80;100589.81;5054985;28;20045;-78
2021/04/19 10:36:31;;;;;;;14.98;13.45;;;;;;;16.49;41.01;100582.69;5055169;28;20053;-85
2021/04/19 10:39:36;;;;;;;15.43;13.50;;;;;;;16.67;40.95;100574.47;5054939;28;20045;-76
2021/04/19 10:42:41;;;;;;;14.15;12.73;;;;;;;16.77;41.42;100569.72;5055167;28;20395;-85
2021/04/19 10:45:45;;;;;;;14.15;12.57;;;;;;;16.96;40.82;100572.09;5055137;28;20036;-83
2021/04/19 10:48:50;;;;;;;14.98;13.48;;;;;;;16.70;40.70;100576.84;5054656;28;20049;-78
2021/04/19 10:51:58;;;;;;;14.45;12.90;;;;;;;16.68;40.43;100577.03;5054471;28;20049;-78
2021/04/19 10:55:08;;;;;;;15.70;13.63;;;;;;;16.67;40.78;100566.31;5056881;28;20041;-82
2021/04/19 10:58:13;;;;;;;15.80;14.20;;;;;;;16.51;41.65;100571.72;5055924;28;20052;-81
2021/04/19 11:01:26;;;;;;;14.30;12.77;;;;;;;16.69;41.32;100562.44;5063443;28;20045;-81
2021/04/19 11:04:32;;;;;;;;;;;;;;;16.73;41.31;100555.69;5075201;28;20479;-82
2021/04/19 11:07:42;;;;;;;15.63;13.88;;;;;;;16.69;41.42;100565.13;5073345;28;19919;-85
2021/04/19 11:10:47;;;;;;;14.90;13.40;;;;;;;16.91;40.87;100555.50;5062480;28;20045;-82
2021/04/19 11:13:52;;;;;;;13.75;12.32;;;;;;;16.83;40.39;100553.66;5073948;28;20407;-79
2021/04/19 11:17:01;;;;;;;14.10;11.65;;;;;;;16.85;40.56;100548.91;5069465;28;20062;-77
2021/04/19 11:20:25;;;;;;;12.98;11.68;;;;;;;17.06;39.67;100540.22;5073580;28;20040;-80
2021/04/19 11:23:35;;;;;;;11.90;10.48;;;;;;;17.20;40.14;100549.53;5073271;28;20040;-79
2021/04/19 11:26:40;;;;;;;14.65;10.65;;;;;;;17.53;39.04;100541.16;5073358;28;20044;-84
2021/04/19 11:29:45;;;;;;;13.32;10.32;;;;;;;17.69;38.56;100536.69;5073411;28;20410;-79
2021/04/19 11:33:01;;;;;;;11.40;10.30;;;;;;;17.36;37.51;100539.47;5061950;28;20044;-84
2021/04/19 11:36:07;;;;;;;11.45;10.25;;;;;;;16.99;37.90;100520.22;5073669;28;20044;-80
2021/04/19 11:39:16;;;;;;;11.93;10.70;;;;;;;16.67;38.49;100528.38;5073318;28;20041;-81
2021/04/19 11:42:35;;;;;;;13.05;10.30;;;;;;;16.53;38.87;100520.94;5073413;28;20482;-78
2021/04/19 11:45:39;;;;;;;11.45;10.25;;;;;;;16.73;38.58;100514.16;5073839;28;20479;-81
2021/04/19 11:48:46;;;;;;;13.00;11.13;;;;;;;16.84;39.65;100519.22;5073583;28;20044;-82
2021/04/19 11:51:50;;;;;;;13.00;11.07;;;;;;;16.75;39.92;100518.41;5073534;28;20053;-79
2021/04/19 11:54:54;;;;;;;13.00;11.20;;;;;;;16.55;39.78;100510.75;5073834;28;20048;-81
2021/04/19 11:57:58;;;;;;;11.98;10.77;;;;;;;16.63;39.53;100506.19;5072759;28;20041;-80
2021/04/19 12:01:04;;;;;;;10.65;9.55;;;;;;;17.07;38.30;100503.09;5073591;28;20048;-81
2021/04/19 12:04:11;;;;;;;13.45;10.25;;;;;;;17.04;38.78;100504.28;5072446;28;20055;-76
2021/04/19 12:07:16;;;;;;;11.70;10.50;;;;;;;17.17;38.46;100504.59;5073570;28;20493;-76
2021/04/19 12:10:20;;;;;;;11.85;10.38;;;;;;;16.96;38.58;100498.88;5073289;28;20391;-76
2021/04/19 12:13:24;;;;;;;11.25;10.15;;;;;;;16.89;38.55;100497.88;5073562;28;20048;-82
2021/04/19 12:16:29;;;;;;;11.85;10.63;;;;;;;16.67;39.92;100501.28;5073566;28;20048;-77
2021/04/19 12:19:33;;;;;;;12.27;11.07;;;;;;;16.64;39.12;100496.22;5073120;28;20040;-76
2021/04/19 12:22:39;;;;;;;11.30;10.15;;;;;;;16.69;38.69;100486.53;5073605;28;20499;-79
2021/04/19 12:25:43;;;;;;;11.35;9.80;;;;;;;16.93;39.16;100488.38;5073386;28;20048;-77
2021/04/19 12:28:48;;;;;;;13.15;10.25;;;;;;;17.14;38.25;100475.09;5073631;28;20071;-76
2021/04/19 12:31:52;;;;;;;13.55;10.48;;;;;;;17.25;38.84;100482.88;5076549;28;20041;-82
2021/04/19 12:34:57;;;;;;;12.13;9.85;;;;;;;17.17;38.91;100484.75;5077609;28;20487;-83
2021/04/19 12:38:01;;;;;;;11.25;9.63;;;;;;;17.09;38.30;100480.19;5076651;28;20051;-75
2021/04/19 12:41:05;;;;;;;10.25;9.25;;;;;;;17.21;36.79;100476.09;5076546;28;20056;-77
2021/04/19 12:44:10;;;;;;;11.70;9.70;;;;;;;16.99;37.85;100475.97;5076282;28;20064;-79
2021/04/19 12:47:14;;;;;;;10.30;9.30;;;;;;;17.10;37.76;100468.34;5077251;28;20056;-82
2021/04/19 12:50:19;;;;;;;11.18;10.05;;;;;;;17.01;38.71;100469.34;5076623;28;20055;-83
2021/04/19 12:53:23;;;;;;;10.30;8.75;;;;;;;16.72;36.86;100474.50;5077066;28;20041;-77
2021/04/19 12:56:28;;;;;;;10.68;8.68;;;;;;;16.58;36.27;100464.34;5076380;28;20063;-77
2021/04/19 12:59:33;;;;;;;11.07;8.63;;;;;;;16.77;37.54;100456.72;5076602;28;20048;-80
2021/04/19 13:02:36;;;;;;;9.68;8.35;;;;;;;16.78;36.57;100457.56;5076983;28;20052;-78
2021/04/19 13:05:41;;;;;;;10.85;8.57;;;;;;;16.75;36.59;100452.47;5074937;28;20040;-81
2021/04/19 13:08:45;;;;;;;9.48;8.50;;;;;;;16.66;36.15;100448.09;5075409;28;20055;-79
2021/04/19 13:11:50;;;;;;;10.48;7.93;;;;;;;16.39;35.46;100451.13;5074037;28;20521;-77
2021/04/19 13:14:54;;;;;;;11.35;7.63;;;;;;;16.34;35.88;100442.66;5058657;28;20051;-76
2021/04/19 13:18:06;;;;;;;8.05;7.20;;;;;;;16.48;36.28;100441.97;5056774;28;20052;-78
2021/04/19 13:21:10;;;;;;;9.02;8.13;;;;;;;16.61;36.90;100426.94;5056301;28;20056;-77
2021/04/19 13:24:19;;;;;;;10.20;7.65;;;;;;;16.61;36.82;100423.38;5055448;28;20068;-84
2021/04/19 13:27:23;;;;;;;9.90;7.72;;;;;;;16.75;37.07;100431.66;5056622;28;20111;-84
2021/04/19 13:30:28;;;;;;;10.68;9.45;;;;;;;16.61;37.42;100428.78;5056465;28;20391;-82
2021/04/19 13:33:33;;;;;;;10.75;9.15;;;;;;;16.45;37.96;100437.75;5055809;28;20068;-83
2021/04/19 13:36:37;;;;;;;10.23;8.77;;;;;;;16.46;38.21;100431.31;5055702;28;20052;-85
2021/04/19 13:39:43;;;;;;;9.43;8.48;;;;;;;16.47;37.20;100421.31;5055963;28;20399;-78
2021/04/19 13:42:47;;;;;;;9.95;8.75;;;;;;;16.49;37.55;100414.69;5055597;28;20495;-79
2021/04/19 13:45:51;;;;;;;9.13;8.23;;;;;;;16.51;37.07;100412.69;5055969;28;20052;-77
2021/04/19 13:48:56;;;;;;;8.68;7.78;;;;;;;16.59;36.84;100409.97;5055962;28;20464;-77
2021/04/19 13:52:00;;;;;;;10.05;7.53;;;;;;;16.70;36.38;100409.63;5055411;28;20064;-79
2021/04/19 13:55:07;;;;;;;8.75;7.75;;;;;;;16.63;35.45;100397.78;5055963;28;20514;-76
2021/04/19 13:58:12;;;;;;;9.18;7.30;;;;;;;16.75;35.88;100403.69;5055972;28;20056;-78
2021/04/19 14:01:16;;;;;;;8.25;7.32;;;;;;;16.71;34.17;100396.94;5054537;28;20175;-77
2021/04/19 14:04:23;;;;;;;9.95;7.22;;;;;;;16.73;34.90;100386.75;5055382;28;20064;-82
2021/04/19 14:07:28;;;;;;;7.97;6.28;;;;;;;16.81;35.11;100389.44;5055634;28;20056;-83
2021/04/19 14:10:32;;;;;;;8.00;7.15;;;;;;;16.76;34.71;100383.69;5055507;28;20048;-77
2021/04/19 14:13:37;;;;;;;11.38;7.35;;;;;;;16.82;34.97;100383.00;5055474;28;20056;-76
2021/04/19 14:16:41;;;;;;;10.07;7.32;;;;;;;16.79;35.06;100378.75;5054732;28;20048;-77
2021/04/19 14:19:46;;;;;;;9.00;7.95;;;;;;;16.73;35.62;100368.63;5055164;28;20044;-79
2021/04/19 14:22:51;;;;;;;8.32;7.43;;;;;;;16.86;36.10;100368.91;5054629;28;20044;-77